Time;durP1;ratioP1;P1;durP2;ratioP2;P2;SDS_P1;SDS_P2;PMS_P1;PMS_P2;Temp;Humidity;BMP_temperature;BMP_pressure;BME280_temperature;BME280_humidity;BME280_pressure;Samples;Min_cycle;Max_cycle;Signal;HPM_P1;HPM_P2
2024/01/09 00:00:09;;;;;;;10.55;6.43;;;;;;;;;;6293608;28;24673;-64
2024/01/09 00:03:11;;;;;;;11.23;6.35;;;;;;;;;;6286674;28;24446;-65
2024/01/09 00:06:14;;;;;;;9.93;5.85;;;;;;;;;;6288816;28;24427;-65
2024/01/09 00:09:16;;;;;;;9.77;5.70;;;;;;;;;;6287804;28;24423;-65
2024/01/09 00:12:19;;;;;;;8.73;6.17;;;;;;;;;;6270553;28;24430;-65
2024/01/09 00:15:21;;;;;;;10.50;5.40;;;;;;;;;;6287863;28;24435;-65
2024/01/09 00:18:22;;;;;;;7.88;5.35;;;;;;;;;;6268332;28;24435;-64
2024/01/09 00:21:24;;;;;;;9.37;5.43;;;;;;;;;;6288910;28;24466;-65
2024/01/09 00:24:26;;;;;;;9.48;5.55;;;;;;;;;;6288864;28;24431;-65
2024/01/09 00:27:29;;;;;;;9.63;5.45;;;;;;;;;;6289612;28;24434;-65
2024/01/09 00:30:31;;;;;;;8.70;5.65;;;;;;;;;;6289687;28;24836;-65
2024/01/09 00:33:33;;;;;;;8.48;5.32;;;;;;;;;;6292276;28;24996;-66
2024/01/09 00:36:35;;;;;;;8.90;5.57;;;;;;;;;;6271749;28;24835;-65
2024/01/09 00:39:37;;;;;;;8.85;5.18;;;;;;;;;;6292050;28;24432;-65
2024/01/09 00:42:40;;;;;;;8.93;5.47;;;;;;;;;;6286517;28;24423;-65
2024/01/09 00:45:42;;;;;;;8.87;5.23;;;;;;;;;;6290813;28;24471;-64
2024/01/09 00:48:43;;;;;;;9.38;5.20;;;;;;;;;;6289619;28;24820;-65
2024/01/09 00:51:46;;;;;;;8.88;4.93;;;;;;;;;;6291097;28;24502;-65
2024/01/09 00:54:47;;;;;;;9.38;4.85;;;;;;;;;;6290897;28;24425;-65
2024/01/09 00:57:51;;;;;;;7.53;4.53;;;;;;;;;;6289145;28;24430;-65
2024/01/09 01:00:52;;;;;;;10.45;5.25;;;;;;;;;;6289692;28;24434;-65
2024/01/09 01:03:54;;;;;;;8.00;4.78;;;;;;;;;;6276840;28;24437;-64
2024/01/09 01:06:56;;;;;;;9.75;4.93;;;;;;;;;;6292211;28;24434;-64
2024/01/09 01:09:58;;;;;;;7.68;4.90;;;;;;;;;;6298897;28;24422;-64
2024/01/09 01:13:01;;;;;;;53.33;28.35;;;;;;;;;;6295771;28;24484;-64
2024/01/09 01:16:03;;;;;;;44.30;23.27;;;;;;;;;;6294471;28;24806;-64
2024/01/09 01:19:05;;;;;;;90.22;45.38;;;;;;;;;;6295885;28;24433;-64
2024/01/09 01:22:06;;;;;;;36.60;18.67;;;;;;;;;;6294079;28;24417;-64
2024/01/09 01:25:09;;;;;;;81.18;37.58;;;;;;;;;;6294560;28;24454;-63
2024/01/09 01:28:12;;;;;;;42.88;20.95;;;;;;;;;;6295012;28;24969;-64
2024/01/09 01:31:14;;;;;;;26.05;12.80;;;;;;;;;;6292575;28;24448;-64
2024/01/09 01:34:15;;;;;;;9.18;5.95;;;;;;;;;;6291285;28;24450;-64
2024/01/09 01:37:17;;;;;;;8.10;4.88;;;;;;;;;;6295008;28;24422;-64
2024/01/09 01:40:19;;;;;;;8.95;5.00;;;;;;;;;;6275151;28;24465;-64
2024/01/09 01:43:22;;;;;;;8.82;5.15;;;;;;;;;;6273306;28;24431;-65
2024/01/09 01:46:24;;;;;;;7.80;4.60;;;;;;;;;;6291958;28;24664;-64
2024/01/09 01:49:26;;;;;;;10.00;5.43;;;;;;;;;;6295211;28;24419;-64
2024/01/09 01:52:27;;;;;;;9.18;5.15;;;;;;;;;;6292814;28;24427;-65
2024/01/09 01:55:30;;;;;;;8.23;4.50;;;;;;;;;;6294938;28;24663;-65
2024/01/09 01:58:33;;;;;;;9.52;4.78;;;;;;;;;;6293079;28;24450;-64
2024/01/09 02:01:35;;;;;;;10.07;4.68;;;;;;;;;;6293912;28;24426;-67
2024/01/09 02:04:39;;;;;;;7.18;4.57;;;;;;;;;;6294090;28;24602;-64
2024/01/09 02:07:43;;;;;;;10.05;5.00;;;;;;;;;;6291264;28;24862;-65
2024/01/09 02:10:45;;;;;;;8.60;5.13;;;;;;;;;;6290503;28;24423;-63
2024/01/09 02:13:48;;;;;;;7.60;4.87;;;;;;;;;;6273077;28;24441;-65
2024/01/09 02:16:50;;;;;;;8.70;4.95;;;;;;;;;;6294720;28;24423;-64
2024/01/09 02:19:51;;;;;;;8.15;4.82;;;;;;;;;;6290257;28;24538;-65
2024/01/09 02:22:53;;;;;;;8.60;4.83;;;;;;;;;;6291616;28;24516;-65
2024/01/09 02:25:55;;;;;;;8.85;4.55;;;;;;;;;;6290093;28;24419;-64
2024/01/09 02:29:02;;;;;;;7.78;4.65;;;;;;;;;;6288771;28;24815;-64
2024/01/09 02:32:06;;;;;;;9.18;4.57;;;;;;;;;;6294638;28;24839;-64
2024/01/09 02:35:09;;;;;;;7.35;4.40;;;;;;;;;;6291175;28;24426;-65
2024/01/09 02:38:10;;;;;;;11.85;5.07;;;;;;;;;;6291730;28;24874;-65
2024/01/09 02:41:12;;;;;;;7.40;4.65;;;;;;;;;;6291754;28;24419;-64
2024/01/09 02:44:14;;;;;;;11.35;5.20;;;;;;;;;;6294782;28;24419;-64
2024/01/09 02:47:18;;;;;;;9.00;4.63;;;;;;;;;;6274151;28;24597;-64
2024/01/09 02:50:20;;;;;;;8.40;4.80;;;;;;;;;;6273526;28;24423;-64
2024/01/09 02:53:22;;;;;;;6.75;4.80;;;;;;;;;;6293645;28;24796;-64
2024/01/09 02:56:24;;;;;;;10.00;5.25;;;;;;;;;;6276090;28;24415;-64
2024/01/09 02:59:26;;;;;;;8.48;4.80;;;;;;;;;;6292696;28;24640;-64
2024/01/09 03:02:29;;;;;;;8.80;4.88;;;;;;;;;;6291637;28;24513;-63
2024/01/09 03:05:31;;;;;;;7.33;4.57;;;;;;;;;;6292225;28;24676;-64
2024/01/09 03:08:33;;;;;;;9.50;4.93;;;;;;;;;;6284427;28;24431;-65
2024/01/09 03:11:35;;;;;;;8.82;4.70;;;;;;;;;;6292313;28;24411;-65
2024/01/09 03:14:37;;;;;;;8.37;4.90;;;;;;;;;;6290769;28;24899;-64
2024/01/09 03:17:40;;;;;;;9.50;5.47;;;;;;;;;;6288989;28;24489;-64
2024/01/09 03:20:42;;;;;;;10.43;5.68;;;;;;;;;;6291799;28;24972;-64
2024/01/09 03:23:44;;;;;;;9.57;5.57;;;;;;;;;;6291552;28;24842;-64
2024/01/09 03:26:46;;;;;;;10.63;5.80;;;;;;;;;;6291564;28;24435;-64
2024/01/09 03:29:47;;;;;;;7.53;5.30;;;;;;;;;;6291732;28;24431;-65
2024/01/09 03:32:51;;;;;;;9.07;5.60;;;;;;;;;;6290141;28;24426;-64
2024/01/09 03:35:52;;;;;;;9.80;5.93;;;;;;;;;;6292310;28;24508;-64
2024/01/09 03:38:55;;;;;;;9.65;5.63;;;;;;;;;;6277065;28;24430;-64
2024/01/09 03:41:57;;;;;;;8.55;5.65;;;;;;;;;;6291443;28;24430;-64
2024/01/09 03:44:58;;;;;;;8.25;5.22;;;;;;;;;;6294430;28;24423;-64
2024/01/09 03:48:01;;;;;;;12.07;5.80;;;;;;;;;;6292397;28;24857;-65
2024/01/09 03:51:03;;;;;;;8.88;5.50;;;;;;;;;;6291212;28;24430;-66
2024/01/09 03:54:05;;;;;;;9.07;5.70;;;;;;;;;;6290521;28;24423;-64
2024/01/09 03:57:07;;;;;;;9.00;5.65;;;;;;;;;;6291517;28;24422;-64
2024/01/09 04:00:10;;;;;;;8.52;5.40;;;;;;;;;;6291184;28;24426;-65
2024/01/09 04:03:13;;;;;;;11.00;6.10;;;;;;;;;;6289124;28;24423;-64
2024/01/09 04:06:15;;;;;;;10.45;5.75;;;;;;;;;;6287035;28;24659;-64
2024/01/09 04:09:17;;;;;;;10.82;6.18;;;;;;;;;;6291355;28;24692;-65
2024/01/09 04:12:19;;;;;;;9.50;5.97;;;;;;;;;;6290244;28;24423;-65
2024/01/09 04:15:20;;;;;;;9.95;5.78;;;;;;;;;;6291249;28;24423;-65
2024/01/09 04:18:24;;;;;;;10.98;5.55;;;;;;;;;;6288229;28;24430;-65
2024/01/09 04:21:25;;;;;;;9.27;5.85;;;;;;;;;;6290259;28;24438;-65
2024/01/09 04:24:27;;;;;;;8.93;5.68;;;;;;;;;;6290264;28;24507;-65
2024/01/09 04:27:29;;;;;;;10.57;5.50;;;;;;;;;;6289537;28;24442;-65
2024/01/09 04:30:31;;;;;;;12.52;6.07;;;;;;;;;;6290264;28;24502;-65
2024/01/09 04:33:34;;;;;;;10.77;5.80;;;;;;;;;;6290710;28;24430;-65
2024/01/09 04:36:36;;;;;;;9.70;6.10;;;;;;;;;;6272786;28;24432;-65
2024/01/09 04:39:38;;;;;;;8.43;5.72;;;;;;;;;;6290795;28;24688;-65
2024/01/09 04:42:39;;;;;;;8.63;5.78;;;;;;;;;;6291139;28;24866;-64
2024/01/09 04:45:41;;;;;;;10.25;5.97;;;;;;;;;;6297285;28;24484;-65
2024/01/09 04:48:44;;;;;;;9.98;6.30;;;;;;;;;;6292721;28;24882;-65
2024/01/09 04:51:46;;;;;;;11.70;6.15;;;;;;;;;;6275221;28;24432;-65
2024/01/09 04:54:48;;;;;;;10.63;6.57;;;;;;;;;;6293023;28;24494;-72
2024/01/09 04:57:50;;;;;;;11.30;6.40;;;;;;;;;;6276947;28;24434;-73
2024/01/09 05:00:51;;;;;;;11.10;6.47;;;;;;;;;;6273411;28;24438;-73
2024/01/09 05:03:55;;;;;;;9.73;6.32;;;;;;;;;;6276117;28;24815;-73
2024/01/09 05:06:57;;;;;;;10.02;6.70;;;;;;;;;;6295088;28;24526;-70
2024/01/09 05:09:59;;;;;;;8.73;6.40;;;;;;;;;;6295092;28;24684;-73
2024/01/09 05:13:01;;;;;;;11.07;6.68;;;;;;;;;;6293288;28;24439;-72
2024/01/09 05:16:04;;;;;;;9.02;6.45;;;;;;;;;;6294632;28;24435;-72
2024/01/09 05:19:07;;;;;;;11.20;6.80;;;;;;;;;;6277016;28;24501;-73
2024/01/09 05:22:08;;;;;;;10.35;6.82;;;;;;;;;;6291081;28;24473;-71
2024/01/09 05:25:10;;;;;;;10.88;6.90;;;;;;;;;;6290517;28;24453;-73
2024/01/09 05:28:12;;;;;;;12.23;6.97;;;;;;;;;;6293765;28;24510;-72
2024/01/09 05:31:14;;;;;;;9.70;6.63;;;;;;;;;;6292784;28;24429;-73
2024/01/09 05:34:17;;;;;;;10.60;7.18;;;;;;;;;;6294720;28;24691;-73
2024/01/09 05:37:19;;;;;;;11.48;7.07;;;;;;;;;;6295042;28;24410;-72
2024/01/09 05:40:21;;;;;;;10.50;7.20;;;;;;;;;;6294169;28;24421;-73
2024/01/09 05:43:22;;;;;;;11.68;7.45;;;;;;;;;;6293142;28;24663;-73
2024/01/09 05:46:24;;;;;;;10.65;7.20;;;;;;;;;;6292706;28;24612;-72
2024/01/09 05:49:27;;;;;;;11.05;7.13;;;;;;;;;;6291889;28;24858;-72
2024/01/09 05:52:29;;;;;;;13.70;7.40;;;;;;;;;;6285821;28;24419;-72
2024/01/09 05:55:31;;;;;;;11.18;7.40;;;;;;;;;;6293383;28;24422;-73
2024/01/09 05:58:33;;;;;;;10.68;7.35;;;;;;;;;;6292174;28;24415;-72
2024/01/09 06:01:35;;;;;;;10.50;7.07;;;;;;;;;;6290916;28;24477;-71
2024/01/09 06:04:38;;;;;;;11.27;7.10;;;;;;;;;;6291627;28;24473;-72
2024/01/09 06:07:40;;;;;;;10.88;7.10;;;;;;;;;;6295650;28;24812;-72
2024/01/09 06:10:42;;;;;;;11.90;6.50;;;;;;;;;;6292346;28;24415;-72
2024/01/09 06:13:44;;;;;;;10.55;6.43;;;;;;;;;;6276028;28;24528;-73
2024/01/09 06:16:45;;;;;;;11.00;6.57;;;;;;;;;;6276740;28;25061;-73
2024/01/09 06:19:49;;;;;;;13.60;6.65;;;;;;;;;;6290661;28;24418;-72
2024/01/09 06:22:50;;;;;;;9.02;5.95;;;;;;;;;;6292165;28;24803;-73
2024/01/09 06:25:52;;;;;;;12.05;6.10;;;;;;;;;;6291167;28;24419;-73
2024/01/09 06:28:54;;;;;;;10.33;6.30;;;;;;;;;;6291112;28;25039;-72
2024/01/09 06:31:56;;;;;;;10.38;6.38;;;;;;;;;;6293283;28;24431;-73
2024/01/09 06:34:59;;;;;;;10.27;6.45;;;;;;;;;;6294283;28;24491;-71
2024/01/09 06:38:01;;;;;;;11.05;6.45;;;;;;;;;;6291755;28;24835;-73
2024/01/09 06:41:02;;;;;;;9.38;6.13;;;;;;;;;;6290906;28;24488;-73
2024/01/09 06:44:05;;;;;;;11.18;6.80;;;;;;;;;;6291938;28;24420;-73
2024/01/09 06:47:06;;;;;;;11.25;6.28;;;;;;;;;;6290651;28;24656;-74
2024/01/09 06:50:10;;;;;;;11.73;6.72;;;;;;;;;;6295508;28;24564;-73
2024/01/09 06:53:12;;;;;;;9.82;6.13;;;;;;;;;;6291287;28;24547;-72
2024/01/09 06:56:14;;;;;;;10.32;6.10;;;;;;;;;;6292331;28;24423;-73
2024/01/09 06:59:16;;;;;;;12.20;6.90;;;;;;;;;;6292341;28;24430;-72
2024/01/09 07:02:17;;;;;;;9.95;6.30;;;;;;;;;;6288951;28;24426;-72
2024/01/09 07:05:21;;;;;;;10.30;6.10;;;;;;;;;;6290389;28;24431;-72
2024/01/09 07:08:23;;;;;;;9.60;5.88;;;;;;;;;;6291887;28;24423;-71
2024/01/09 07:11:25;;;;;;;11.68;6.07;;;;;;;;;;6289516;28;24423;-72
2024/01/09 07:14:26;;;;;;;11.10;6.15;;;;;;;;;;6292435;28;24827;-65
2024/01/09 07:17:28;;;;;;;9.02;5.68;;;;;;;;;;6290153;28;24442;-65
2024/01/09 07:20:31;;;;;;;8.68;5.40;;;;;;;;;;6291176;28;24465;-65
2024/01/09 07:23:33;;;;;;;10.17;6.10;;;;;;;;;;6293754;28;24429;-64
2024/01/09 07:26:39;;;;;;;11.05;5.88;;;;;;;;;;6287400;28;25081;-65
2024/01/09 07:29:41;;;;;;;8.45;5.32;;;;;;;;;;6288326;28;24473;-65
2024/01/09 07:32:43;;;;;;;9.25;5.35;;;;;;;;;;6289541;28;24419;-65
2024/01/09 07:35:46;;;;;;;10.30;5.13;;;;;;;;;;6291549;28;24815;-65
2024/01/09 07:38:48;;;;;;;9.18;4.80;;;;;;;;;;6291346;28;24423;-65
2024/01/09 07:41:50;;;;;;;9.82;5.10;;;;;;;;;;6293174;28;24429;-65
2024/01/09 07:44:51;;;;;;;9.10;5.53;;;;;;;;;;6288017;28;24410;-65
2024/01/09 07:47:53;;;;;;;9.57;5.00;;;;;;;;;;6290326;28;24424;-65
2024/01/09 07:50:57;;;;;;;9.60;5.10;;;;;;;;;;6287224;28;24486;-65
2024/01/09 07:53:59;;;;;;;9.60;5.50;;;;;;;;;;6288626;28;24487;-65
2024/01/09 07:57:01;;;;;;;9.40;5.10;;;;;;;;;;6270369;28;24428;-65
2024/01/09 08:00:04;;;;;;;8.25;5.00;;;;;;;;;;6288424;28;24492;-65
2024/01/09 08:03:06;;;;;;;9.18;5.07;;;;;;;;;;6286763;28;24462;-65
2024/01/09 08:06:13;;;;;;;8.75;4.90;;;;;;;;;;6287997;28;24536;-65
2024/01/09 08:09:16;;;;;;;8.75;5.38;;;;;;;;;;6270908;28;24434;-65
2024/01/09 08:12:18;;;;;;;9.52;5.28;;;;;;;;;;6289314;28;24416;-65
2024/01/09 08:15:19;;;;;;;9.02;5.10;;;;;;;;;;6271939;28;24429;-65
2024/01/09 08:18:21;;;;;;;10.55;5.18;;;;;;;;;;6289854;28;24458;-65
2024/01/09 08:21:24;;;;;;;9.98;5.43;;;;;;;;;;6290223;28;24427;-65
2024/01/09 08:24:26;;;;;;;8.23;5.10;;;;;;;;;;6293705;28;24729;-72
2024/01/09 08:27:28;;;;;;;9.45;5.10;;;;;;;;;;6277366;28;24435;-72
2024/01/09 08:30:30;;;;;;;7.60;4.63;;;;;;;;;;6295483;28;24665;-72
2024/01/09 08:33:34;;;;;;;7.38;4.47;;;;;;;;;;6295510;28;24431;-72
2024/01/09 08:36:37;;;;;;;7.13;4.65;;;;;;;;;;6276782;28;24629;-72
2024/01/09 08:39:39;;;;;;;8.77;5.00;;;;;;;;;;6295681;28;24430;-73
2024/01/09 08:42:40;;;;;;;8.43;4.90;;;;;;;;;;6291900;28;24853;-73
2024/01/09 08:45:43;;;;;;;7.75;4.70;;;;;;;;;;6294653;28;24430;-72
2024/01/09 08:48:46;;;;;;;9.43;4.72;;;;;;;;;;6290983;28;24429;-72
2024/01/09 08:51:50;;;;;;;7.63;5.00;;;;;;;;;;6292630;28;24853;-73
2024/01/09 08:54:52;;;;;;;8.50;4.73;;;;;;;;;;6273906;28;24507;-73
2024/01/09 08:57:54;;;;;;;7.22;4.75;;;;;;;;;;6291891;28;24434;-72
2024/01/09 09:00:56;;;;;;;7.00;4.40;;;;;;;;;;6294063;28;25145;-72
2024/01/09 09:03:57;;;;;;;8.30;4.60;;;;;;;;;;6295396;28;24428;-69
2024/01/09 09:07:01;;;;;;;8.63;4.63;;;;;;;;;;6293741;28;24449;-71
2024/01/09 09:10:03;;;;;;;8.38;4.38;;;;;;;;;;6290905;28;24470;-71
2024/01/09 09:13:06;;;;;;;10.03;4.67;;;;;;;;;;6292178;28;24484;-71
2024/01/09 09:16:08;;;;;;;8.77;4.80;;;;;;;;;;6293809;28;24636;-73
2024/01/09 09:19:10;;;;;;;7.37;4.77;;;;;;;;;;6293667;28;24423;-71
2024/01/09 09:22:13;;;;;;;7.90;4.53;;;;;;;;;;6292096;28;24418;-72
2024/01/09 09:25:16;;;;;;;7.37;4.43;;;;;;;;;;6277345;28;24490;-73
2024/01/09 09:28:18;;;;;;;8.07;4.80;;;;;;;;;;6291759;28;24490;-72
2024/01/09 09:31:20;;;;;;;6.70;4.55;;;;;;;;;;6294789;28;24422;-74
2024/01/09 09:34:21;;;;;;;7.35;4.60;;;;;;;;;;6274329;28;24419;-65
2024/01/09 09:37:25;;;;;;;8.93;4.90;;;;;;;;;;6293033;28;24962;-66
2024/01/09 09:40:26;;;;;;;8.48;5.10;;;;;;;;;;6292739;28;24432;-65
2024/01/09 09:43:28;;;;;;;7.53;4.95;;;;;;;;;;6292500;28;24417;-65
2024/01/09 09:46:31;;;;;;;7.78;4.43;;;;;;;;;;6292370;28;24426;-64
2024/01/09 09:49:36;;;;;;;8.68;4.90;;;;;;;;;;6294055;28;24427;-65
2024/01/09 09:52:42;;;;;;;7.57;4.90;;;;;;;;;;6293145;28;25065;-66
2024/01/09 09:55:44;;;;;;;7.88;4.80;;;;;;;;;;6278581;28;24457;-65
2024/01/09 09:58:45;;;;;;;7.80;4.78;;;;;;;;;;6291073;28;24799;-66
2024/01/09 10:01:48;;;;;;;9.18;4.63;;;;;;;;;;6292366;28;24832;-65
2024/01/09 10:04:51;;;;;;;6.85;4.18;;;;;;;;;;6292338;28;24416;-65
2024/01/09 10:07:55;;;;;;;8.73;4.15;;;;;;;;;;6293933;28;24543;-65
2024/01/09 10:10:57;;;;;;;7.43;4.35;;;;;;;;;;6289884;28;24415;-65
2024/01/09 10:13:58;;;;;;;7.57;3.90;;;;;;;;;;6293634;28;24465;-65
2024/01/09 10:17:03;;;;;;;5.88;4.13;;;;;;;;;;6291987;28;24407;-64
2024/01/09 10:20:08;;;;;;;7.45;4.50;;;;;;;;;;6292769;28;24613;-65
2024/01/09 10:23:11;;;;;;;7.32;4.28;;;;;;;;;;6290958;28;24420;-65
2024/01/09 10:26:13;;;;;;;7.63;4.43;;;;;;;;;;6293583;28;24435;-65
2024/01/09 10:29:15;;;;;;;7.90;3.72;;;;;;;;;;6292831;28;24836;-64
2024/01/09 10:32:18;;;;;;;6.72;3.95;;;;;;;;;;6288507;28;24479;-65
2024/01/09 10:35:20;;;;;;;6.82;4.13;;;;;;;;;;6288676;28;24504;-65
2024/01/09 10:38:26;;;;;;;6.88;4.18;;;;;;;;;;6292615;28;24450;-64
2024/01/09 10:41:28;;;;;;;7.80;4.18;;;;;;;;;;6291082;28;24913;-65
2024/01/09 10:44:31;;;;;;;8.02;4.35;;;;;;;;;;6291396;28;24426;-65
2024/01/09 10:47:34;;;;;;;7.75;4.50;;;;;;;;;;6291015;28;24787;-65
2024/01/09 10:50:35;;;;;;;6.90;4.35;;;;;;;;;;6273215;28;24653;-65
2024/01/09 10:53:40;;;;;;;7.70;4.53;;;;;;;;;;6293112;28;24430;-65
2024/01/09 10:56:43;;;;;;;8.15;4.20;;;;;;;;;;6290288;28;24423;-65
2024/01/09 10:59:46;;;;;;;8.18;4.50;;;;;;;;;;6292138;28;24610;-65
2024/01/09 11:02:48;;;;;;;6.43;4.30;;;;;;;;;;6273584;28;24481;-65
2024/01/09 11:05:52;;;;;;;6.15;3.83;;;;;;;;;;6288799;28;24427;-66
2024/01/09 11:08:58;;;;;;;7.43;4.20;;;;;;;;;;6270666;28;24827;-65
2024/01/09 11:12:00;;;;;;;7.53;4.18;;;;;;;;;;6288585;28;25241;-64
2024/01/09 11:15:05;;;;;;;8.25;4.55;;;;;;;;;;6274222;28;24457;-64
2024/01/09 11:18:09;;;;;;;8.82;4.47;;;;;;;;;;6291525;28;24445;-64
2024/01/09 11:21:11;;;;;;;9.85;4.55;;;;;;;;;;6291193;28;24419;-64
2024/01/09 11:24:15;;;;;;;7.75;4.20;;;;;;;;;;6289658;28;24468;-64
2024/01/09 11:27:17;;;;;;;6.60;4.15;;;;;;;;;;6289080;28;24442;-64
2024/01/09 11:30:28;;;;;;;7.28;3.95;;;;;;;;;;6288427;28;24481;-65
2024/01/09 11:33:31;;;;;;;7.50;4.10;;;;;;;;;;6287642;28;24477;-65
2024/01/09 11:36:34;;;;;;;6.43;4.00;;;;;;;;;;6291544;28;24569;-65
2024/01/09 11:39:37;;;;;;;7.80;3.80;;;;;;;;;;6285525;28;24796;-63
2024/01/09 11:42:40;;;;;;;6.90;3.70;;;;;;;;;;6290348;28;24446;-64
2024/01/09 11:45:42;;;;;;;6.65;4.00;;;;;;;;;;6271292;28;24816;-64
2024/01/09 11:48:45;;;;;;;10.50;4.47;;;;;;;;;;6291947;28;24542;-65
2024/01/09 11:51:47;;;;;;;7.70;4.32;;;;;;;;;;6287380;28;24423;-64
2024/01/09 11:54:50;;;;;;;6.50;4.30;;;;;;;;;;6290183;28;24624;-64
2024/01/09 11:57:52;;;;;;;6.07;4.00;;;;;;;;;;6291482;28;24415;-64
2024/01/09 12:00:54;;;;;;;7.60;4.25;;;;;;;;;;6289656;28;24442;-64
2024/01/09 12:03:58;;;;;;;6.82;4.18;;;;;;;;;;6288204;28;24964;-64
2024/01/09 12:06:59;;;;;;;6.63;4.03;;;;;;;;;;6287081;28;24500;-65
2024/01/09 12:10:03;;;;;;;6.38;4.20;;;;;;;;;;6289744;28;24457;-65
2024/01/09 12:13:05;;;;;;;6.63;4.50;;;;;;;;;;6287667;28;24549;-64
2024/01/09 12:16:16;;;;;;;7.37;4.33;;;;;;;;;;6286828;28;24456;-64
2024/01/09 12:19:19;;;;;;;7.00;4.60;;;;;;;;;;6270956;28;24416;-64
2024/01/09 12:22:21;;;;;;;7.73;4.60;;;;;;;;;;6293057;28;25078;-64
2024/01/09 12:25:24;;;;;;;7.53;5.03;;;;;;;;;;6288945;28;24943;-64
2024/01/09 12:28:26;;;;;;;8.98;4.82;;;;;;;;;;6287965;28;24423;-64
2024/01/09 12:31:28;;;;;;;7.28;4.75;;;;;;;;;;6288926;28;24426;-65
2024/01/09 12:34:29;;;;;;;7.43;4.60;;;;;;;;;;6290883;28;24799;-65
2024/01/09 12:37:31;;;;;;;8.30;4.82;;;;;;;;;;6290182;28;24423;-65
2024/01/09 12:40:35;;;;;;;7.90;4.93;;;;;;;;;;6288492;28;24428;-65
2024/01/09 12:43:37;;;;;;;8.20;4.65;;;;;;;;;;6272425;28;24917;-65
2024/01/09 12:46:43;;;;;;;7.18;4.75;;;;;;;;;;6274207;28;24934;-64
2024/01/09 12:49:45;;;;;;;9.05;5.03;;;;;;;;;;6283537;28;24434;-64
2024/01/09 12:52:46;;;;;;;6.97;4.63;;;;;;;;;;6271226;28;24430;-67
2024/01/09 12:56:02;;;;;;;7.60;4.43;;;;;;;;;;6291844;28;24628;-64
2024/01/09 12:59:04;;;;;;;7.65;4.55;;;;;;;;;;6284865;28;24493;-64
2024/01/09 13:02:05;;;;;;;8.85;5.00;;;;;;;;;;6289884;28;24494;-64
2024/01/09 13:05:08;;;;;;;6.97;4.50;;;;;;;;;;6292734;28;24427;-64
2024/01/09 13:08:09;;;;;;;7.93;5.00;;;;;;;;;;6292166;28;24423;-63
2024/01/09 13:11:13;;;;;;;7.78;4.80;;;;;;;;;;6294710;28;24886;-64
2024/01/09 13:14:15;;;;;;;7.47;4.53;;;;;;;;;;6274076;28;24415;-67
2024/01/09 13:17:16;;;;;;;8.40;5.33;;;;;;;;;;6292458;28;25135;-63
2024/01/09 13:20:18;;;;;;;7.97;5.00;;;;;;;;;;6293459;28;24427;-64
2024/01/09 13:23:20;;;;;;;7.13;4.70;;;;;;;;;;6290317;28;24415;-64
2024/01/09 13:26:23;;;;;;;7.90;5.20;;;;;;;;;;6291390;28;24423;-64
2024/01/09 13:29:27;;;;;;;7.13;4.70;;;;;;;;;;6293103;28;24419;-64
2024/01/09 13:32:29;;;;;;;6.90;4.37;;;;;;;;;;6267461;28;24434;-68
2024/01/09 13:35:32;;;;;;;7.55;4.90;;;;;;;;;;6290376;28;24423;-64
2024/01/09 13:38:34;;;;;;;7.73;5.17;;;;;;;;;;6275178;28;24484;-64
2024/01/09 13:41:37;;;;;;;8.40;5.13;;;;;;;;;;6273017;28;24406;-65
2024/01/09 13:44:39;;;;;;;7.23;5.10;;;;;;;;;;6273205;28;24427;-66
2024/01/09 13:47:41;;;;;;;8.68;4.95;;;;;;;;;;6293372;28;24451;-66
2024/01/09 13:50:43;;;;;;;7.93;5.30;;;;;;;;;;6291881;28;24465;-65
2024/01/09 13:53:46;;;;;;;8.18;5.50;;;;;;;;;;6293297;28;24664;-65
2024/01/09 13:56:49;;;;;;;8.25;5.20;;;;;;;;;;6293189;28;24454;-65
2024/01/09 13:59:51;;;;;;;9.20;5.47;;;;;;;;;;6293357;28;24649;-65
2024/01/09 14:02:53;;;;;;;8.25;5.10;;;;;;;;;;6291322;28;24433;-65
2024/01/09 14:05:55;;;;;;;8.83;5.53;;;;;;;;;;6291446;28;24776;-66
2024/01/09 14:08:57;;;;;;;9.43;5.90;;;;;;;;;;6289669;28;24828;-63
2024/01/09 14:12:00;;;;;;;10.67;5.63;;;;;;;;;;6290396;28;24495;-63
2024/01/09 14:15:03;;;;;;;8.57;5.60;;;;;;;;;;6292234;28;24835;-72
2024/01/09 14:18:05;;;;;;;10.65;5.53;;;;;;;;;;6293304;28;24481;-71
2024/01/09 14:21:07;;;;;;;9.20;5.65;;;;;;;;;;6292531;28;24458;-71
2024/01/09 14:24:09;;;;;;;9.20;5.63;;;;;;;;;;6288784;28;24415;-71
2024/01/09 14:27:13;;;;;;;10.23;5.88;;;;;;;;;;6288291;28;24540;-71
2024/01/09 14:30:18;;;;;;;8.57;5.63;;;;;;;;;;6261535;28;24426;-71
2024/01/09 14:33:20;;;;;;;8.63;5.72;;;;;;;;;;6290938;28;24520;-71
2024/01/09 14:36:22;;;;;;;8.37;5.40;;;;;;;;;;6292416;28;24629;-72
2024/01/09 14:39:23;;;;;;;9.85;6.10;;;;;;;;;;6291396;28;24496;-72
2024/01/09 14:42:27;;;;;;;10.57;6.13;;;;;;;;;;6270249;28;24732;-71
2024/01/09 14:45:29;;;;;;;10.55;6.20;;;;;;;;;;6288970;28;24427;-71
2024/01/09 14:48:31;;;;;;;11.23;5.53;;;;;;;;;;6272332;28;24442;-71
2024/01/09 14:51:35;;;;;;;10.40;6.10;;;;;;;;;;6290279;28;24419;-71
2024/01/09 14:54:37;;;;;;;10.15;6.18;;;;;;;;;;6291444;28;24501;-71
2024/01/09 14:57:41;;;;;;;9.15;5.65;;;;;;;;;;6290526;28;24425;-71
2024/01/09 15:00:44;;;;;;;10.30;5.90;;;;;;;;;;6289817;28;24419;-71
2024/01/09 15:03:45;;;;;;;9.50;6.05;;;;;;;;;;6289497;28;24469;-71
2024/01/09 15:06:48;;;;;;;10.65;6.57;;;;;;;;;;6287925;28;24513;-71
2024/01/09 15:09:51;;;;;;;9.73;6.18;;;;;;;;;;6288562;28;24453;-71
2024/01/09 15:12:54;;;;;;;10.50;6.25;;;;;;;;;;6293562;28;24828;-71
2024/01/09 15:15:56;;;;;;;11.18;6.18;;;;;;;;;;6288957;28;24423;-72
2024/01/09 15:18:57;;;;;;;12.50;6.67;;;;;;;;;;6290009;28;24800;-72
2024/01/09 15:22:01;;;;;;;11.93;6.43;;;;;;;;;;6287229;28;24430;-71
2024/01/09 15:25:03;;;;;;;10.63;6.30;;;;;;;;;;6289977;28;24450;-65
2024/01/09 15:28:06;;;;;;;10.68;5.70;;;;;;;;;;6269563;28;24637;-66
2024/01/09 15:31:09;;;;;;;11.65;7.10;;;;;;;;;;6288324;28;24714;-65
2024/01/09 15:34:12;;;;;;;9.95;6.03;;;;;;;;;;6268905;28;24530;-64
2024/01/09 15:37:14;;;;;;;10.40;6.25;;;;;;;;;;6290434;28;24855;-65
2024/01/09 15:40:16;;;;;;;10.57;6.22;;;;;;;;;;6272894;28;24426;-66
2024/01/09 15:43:20;;;;;;;18.83;11.00;;;;;;;;;;6290818;28;24439;-63
2024/01/09 15:46:25;;;;;;;34.23;19.30;;;;;;;;;;6289529;28;24426;-63
2024/01/09 15:49:27;;;;;;;27.38;14.80;;;;;;;;;;6290091;28;24426;-64
2024/01/09 15:52:29;;;;;;;33.95;16.95;;;;;;;;;;6287360;28;24419;-64
2024/01/09 15:55:30;;;;;;;64.28;29.55;;;;;;;;;;6270459;28;24671;-64
2024/01/09 15:58:35;;;;;;;34.47;17.27;;;;;;;;;;6286929;28;24431;-64
2024/01/09 16:01:37;;;;;;;36.05;18.30;;;;;;;;;;6292133;28;24415;-64
2024/01/09 16:04:39;;;;;;;57.53;28.47;;;;;;;;;;6290668;28;24414;-64
2024/01/09 16:07:41;;;;;;;23.10;11.15;;;;;;;;;;6288763;28;24434;-65
2024/01/09 16:10:43;;;;;;;10.88;6.82;;;;;;;;;;6290692;28;24434;-65
2024/01/09 16:13:46;;;;;;;11.52;6.72;;;;;;;;;;6291656;28;24636;-67
2024/01/09 16:16:52;;;;;;;13.30;6.70;;;;;;;;;;6289226;28;24430;-64
2024/01/09 16:19:53;;;;;;;12.20;6.55;;;;;;;;;;6290876;28;24691;-64
2024/01/09 16:22:55;;;;;;;10.52;6.85;;;;;;;;;;6291258;28;24421;-65
2024/01/09 16:25:57;;;;;;;11.07;6.53;;;;;;;;;;6289283;28;24454;-64
2024/01/09 16:29:00;;;;;;;11.18;6.30;;;;;;;;;;6289601;28;24434;-65
2024/01/09 16:32:02;;;;;;;11.98;6.70;;;;;;;;;;6288315;28;24442;-64
2024/01/09 16:35:04;;;;;;;11.00;6.70;;;;;;;;;;6290622;28;24810;-63
2024/01/09 16:38:06;;;;;;;11.33;6.70;;;;;;;;;;6293751;28;24422;-64
2024/01/09 16:41:08;;;;;;;10.70;6.33;;;;;;;;;;6293656;28;24878;-64
2024/01/09 16:44:11;;;;;;;12.38;6.55;;;;;;;;;;6295036;28;24801;-65
2024/01/09 16:47:14;;;;;;;11.95;6.50;;;;;;;;;;6294551;28;24482;-63
2024/01/09 16:50:15;;;;;;;12.47;6.33;;;;;;;;;;6294531;28;24478;-65
2024/01/09 16:53:17;;;;;;;11.40;6.78;;;;;;;;;;6296327;28;24422;-65
2024/01/09 16:56:20;;;;;;;11.60;6.88;;;;;;;;;;6293244;28;24793;-65
2024/01/09 16:59:23;;;;;;;11.50;6.00;;;;;;;;;;6288592;28;24431;-65
2024/01/09 17:02:25;;;;;;;12.05;6.18;;;;;;;;;;6290717;28;24495;-65
2024/01/09 17:05:27;;;;;;;12.95;6.50;;;;;;;;;;6292907;28;24422;-65
2024/01/09 17:08:30;;;;;;;11.82;7.00;;;;;;;;;;6289319;28;24441;-64
2024/01/09 17:11:39;;;;;;;9.77;6.60;;;;;;;;;;6295622;28;24502;-65
2024/01/09 17:14:45;;;;;;;11.00;6.50;;;;;;;;;;6292855;28;24594;-65
2024/01/09 17:17:46;;;;;;;11.57;6.27;;;;;;;;;;6292315;28;24783;-65
2024/01/09 17:20:48;;;;;;;10.52;6.30;;;;;;;;;;6292201;28;24707;-65
2024/01/09 17:23:50;;;;;;;12.60;6.43;;;;;;;;;;6260673;28;24430;-66
2024/01/09 17:26:52;;;;;;;11.15;6.53;;;;;;;;;;6291217;28;24430;-65
2024/01/09 17:29:55;;;;;;;11.70;6.67;;;;;;;;;;6292748;28;24415;-65
2024/01/09 17:32:57;;;;;;;11.68;6.38;;;;;;;;;;6289576;28;24435;-65
2024/01/09 17:35:59;;;;;;;10.87;6.53;;;;;;;;;;6294224;28;24419;-65
2024/01/09 17:39:01;;;;;;;11.52;7.03;;;;;;;;;;6291138;28;24423;-65
2024/01/09 17:42:03;;;;;;;11.17;6.80;;;;;;;;;;6273245;28;24488;-65
2024/01/09 17:45:08;;;;;;;11.20;6.50;;;;;;;;;;6290745;28;24461;-65
2024/01/09 17:48:11;;;;;;;9.70;6.50;;;;;;;;;;6290240;28;24438;-65
2024/01/09 17:51:12;;;;;;;11.13;6.17;;;;;;;;;;6274264;28;24431;-65
2024/01/09 17:54:14;;;;;;;10.68;6.80;;;;;;;;;;6293675;28;24716;-66
2024/01/09 17:57:16;;;;;;;10.75;6.38;;;;;;;;;;6292686;28;24423;-66
2024/01/09 18:00:20;;;;;;;11.77;6.35;;;;;;;;;;6294589;28;24523;-65
2024/01/09 18:03:22;;;;;;;13.55;7.22;;;;;;;;;;6290624;28;24430;-66
2024/01/09 18:06:24;;;;;;;11.95;6.93;;;;;;;;;;6292489;28;24687;-65